Time;durP1;ratioP1;P1;durP2;ratioP2;P2;SDS_P1;SDS_P2;PMS_P1;PMS_P2;Temp;Humidity;BMP_temperature;BMP_pressure;BME280_temperature;BME280_humidity;BME280_pressure;Samples;Min_cycle;Max_cycle;Signal;HPM_P1;HPM_P2
2023/08/08 00:00:26;;;;;;;7.30;4.70;;;13.80;99.90;;;;;;5082321;28;20036;-57
2023/08/08 00:02:51;;;;;;;7.05;4.90;;;13.80;99.90;;;;;;5079582;28;20040;-56
2023/08/08 00:05:17;;;;;;;10.68;4.63;;;13.80;99.90;;;;;;5079395;28;20069;-57
2023/08/08 00:07:43;;;;;;;7.53;4.40;;;13.80;99.90;;;;;;5091901;28;20036;-57
2023/08/08 00:10:09;;;;;;;6.45;4.53;;;13.80;99.90;;;;;;5069852;28;20087;-58
2023/08/08 00:12:34;;;;;;;8.60;4.53;;;13.80;99.90;;;;;;5090231;28;20045;-57
2023/08/08 00:15:00;;;;;;;9.05;4.47;;;13.90;99.90;;;;;;5079037;28;20059;-57
2023/08/08 00:17:26;;;;;;;8.82;4.68;;;13.90;99.90;;;;;;5081333;28;20748;-57
2023/08/08 00:19:51;;;;;;;11.00;4.60;;;13.90;99.90;;;;;;5078675;28;20044;-59
2023/08/08 00:22:17;;;;;;;10.25;4.70;;;13.90;99.90;;;;;;5080330;28;20052;-57
2023/08/08 00:24:43;;;;;;;10.25;4.45;;;13.90;99.90;;;;;;5079862;28;20047;-57
2023/08/08 00:27:08;;;;;;;9.93;4.75;;;13.90;99.90;;;;;;5069191;28;20040;-59
2023/08/08 00:29:34;;;;;;;11.30;4.95;;;13.90;99.90;;;;;;5060463;28;20040;-58
2023/08/08 00:32:00;;;;;;;8.70;4.93;;;13.90;99.90;;;;;;5059193;28;20052;-57
2023/08/08 00:34:25;;;;;;;10.35;4.93;;;14.00;99.90;;;;;;5075996;28;20507;-57
2023/08/08 00:36:51;;;;;;;9.55;5.13;;;14.00;99.90;;;;;;5078891;28;20075;-58
2023/08/08 00:39:17;;;;;;;8.18;5.00;;;14.00;99.90;;;;;;5079153;28;20047;-57
2023/08/08 00:41:42;;;;;;;10.52;5.30;;;14.00;99.90;;;;;;5079886;28;20051;-57
2023/08/08 00:44:08;;;;;;;8.98;4.88;;;14.00;99.90;;;;;;5078323;28;20036;-57
2023/08/08 00:46:34;;;;;;;11.63;5.20;;;14.00;99.90;;;;;;5088452;28;20029;-57
2023/08/08 00:49:00;;;;;;;7.70;4.88;;;14.00;99.90;;;;;;5094600;28;20164;-57
2023/08/08 00:51:25;;;;;;;9.70;5.10;;;14.10;99.90;;;;;;5100337;28;20059;-58
2023/08/08 00:53:51;;;;;;;11.02;4.88;;;14.10;99.90;;;;;;5086151;28;20044;-57
2023/08/08 00:56:17;;;;;;;8.48;4.97;;;14.10;99.90;;;;;;5097259;28;20553;-57
2023/08/08 00:58:45;;;;;;;10.73;5.03;;;14.10;99.90;;;;;;5099270;28;20036;-57
2023/08/08 01:01:12;;;;;;;9.55;5.22;;;14.10;99.90;;;;;;5088677;28;20041;-57
2023/08/08 01:03:37;;;;;;;8.65;5.13;;;14.10;99.90;;;;;;5093355;28;20047;-58
2023/08/08 01:06:15;;;;;;;11.75;5.30;;;14.10;99.90;;;;;;5099796;28;20048;-58
2023/08/08 01:08:50;;;;;;;11.15;4.85;;;14.10;99.90;;;;;;5089305;28;20053;-57
2023/08/08 01:11:17;;;;;;;15.02;5.55;;;14.10;99.90;;;;;;5094962;28;20092;-57
2023/08/08 01:13:43;;;;;;;7.30;5.13;;;14.10;99.90;;;;;;5083640;28;20139;-57
2023/08/08 01:16:10;;;;;;;10.70;5.88;;;14.10;99.90;;;;;;5073778;28;20044;-57
2023/08/08 01:18:37;;;;;;;11.02;4.95;;;14.10;99.90;;;;;;5069942;28;20036;-57
2023/08/08 01:21:04;;;;;;;13.43;5.63;;;14.10;99.90;;;;;;5063634;28;20057;-57
2023/08/08 01:23:55;;;;;;;11.27;5.43;;;14.20;99.90;;;;;;5062136;28;20044;-58
2023/08/08 01:26:22;;;;;;;10.95;5.13;;;14.20;99.90;;;;;;5069390;28;20051;-58
2023/08/08 01:28:47;;;;;;;13.98;5.47;;;14.20;99.90;;;;;;5074630;28;20045;-59
2023/08/08 01:31:13;;;;;;;11.18;5.60;;;14.20;99.90;;;;;;5082545;28;20067;-57
2023/08/08 01:33:39;;;;;;;12.57;5.55;;;14.20;99.90;;;;;;5083159;28;20041;-57
2023/08/08 01:36:13;;;;;;;9.45;5.20;;;14.20;99.90;;;;;;5081593;28;20095;-56
2023/08/08 01:38:46;;;;;;;14.63;5.80;;;14.20;99.90;;;;;;5081741;28;20044;-57
2023/08/08 01:41:12;;;;;;;14.50;5.60;;;14.20;99.90;;;;;;5082182;28;20072;-58
2023/08/08 01:43:39;;;;;;;12.60;6.75;;;14.20;99.90;;;;;;5083136;28;20092;-57
2023/08/08 01:46:07;;;;;;;11.95;6.50;;;14.20;99.90;;;;;;5098952;28;20113;-57
2023/08/08 01:48:33;;;;;;;14.88;6.88;;;14.20;99.90;;;;;;5090156;28;20082;-57
2023/08/08 01:50:58;;;;;;;15.73;6.68;;;14.20;99.90;;;;;;5080872;28;20490;-57
2023/08/08 01:53:24;;;;;;;18.00;6.93;;;14.20;99.90;;;;;;5067689;28;20047;-57
2023/08/08 01:55:50;;;;;;;15.90;6.43;;;14.20;99.90;;;;;;5083338;28;20096;-57
2023/08/08 01:58:15;;;;;;;15.10;6.72;;;14.20;99.90;;;;;;5081382;28;20036;-56
2023/08/08 02:00:43;;;;;;;12.32;6.40;;;14.20;99.90;;;;;;5100186;28;20036;-57
2023/08/08 02:03:09;;;;;;;14.27;6.30;;;14.20;99.90;;;;;;5082727;28;20044;-56
2023/08/08 02:05:35;;;;;;;14.63;6.70;;;14.20;99.90;;;;;;5087060;28;20040;-57
2023/08/08 02:08:01;;;;;;;13.52;6.93;;;14.20;99.90;;;;;;5080372;28;20045;-57
2023/08/08 02:10:26;;;;;;;11.60;6.35;;;14.20;99.90;;;;;;5070989;28;20135;-57
2023/08/08 02:12:52;;;;;;;17.70;7.25;;;14.20;99.90;;;;;;5082769;28;20139;-57
2023/08/08 02:15:17;;;;;;;13.52;6.85;;;14.20;99.90;;;;;;5082642;28;20082;-57
2023/08/08 02:17:43;;;;;;;17.75;7.07;;;14.20;99.90;;;;;;5088773;28;20063;-57
2023/08/08 02:20:10;;;;;;;17.25;7.13;;;14.30;99.90;;;;;;5080019;28;20044;-57
2023/08/08 02:22:37;;;;;;;21.20;7.32;;;14.20;99.90;;;;;;5079219;28;20048;-56
2023/08/08 02:25:03;;;;;;;15.25;6.90;;;14.20;99.90;;;;;;5082295;28;20051;-57
2023/08/08 02:27:29;;;;;;;16.35;7.07;;;14.30;99.90;;;;;;5061937;28;20127;-57
2023/08/08 02:29:55;;;;;;;15.23;6.97;;;14.30;99.90;;;;;;5083425;28;20511;-57
2023/08/08 02:32:20;;;;;;;14.65;6.97;;;14.30;99.90;;;;;;5097790;28;20487;-57
2023/08/08 02:34:46;;;;;;;17.05;7.03;;;14.30;99.90;;;;;;5070413;28;20036;-57
2023/08/08 02:37:12;;;;;;;13.82;6.47;;;14.30;99.90;;;;;;5101627;28;20044;-57
2023/08/08 02:39:37;;;;;;;11.48;6.65;;;14.20;99.90;;;;;;5101986;28;20072;-57
2023/08/08 02:42:03;;;;;;;15.88;6.75;;;14.20;99.90;;;;;;5101053;28;20048;-57
2023/08/08 02:44:29;;;;;;;18.55;6.93;;;14.20;99.90;;;;;;5075040;28;20052;-57
2023/08/08 02:46:55;;;;;;;15.82;6.38;;;14.20;99.90;;;;;;5091783;28;20374;-57
2023/08/08 02:49:20;;;;;;;17.67;6.95;;;14.20;99.90;;;;;;5081753;28;20028;-57
2023/08/08 02:51:46;;;;;;;19.15;6.25;;;14.20;99.90;;;;;;5080154;28;20113;-57
2023/08/08 02:54:12;;;;;;;14.43;6.18;;;14.20;99.90;;;;;;5062278;28;20036;-57
2023/08/08 02:56:37;;;;;;;16.08;6.13;;;14.20;99.90;;;;;;5063688;28;20036;-57
2023/08/08 02:59:03;;;;;;;18.60;5.50;;;14.20;99.90;;;;;;5063169;28;20072;-58
2023/08/08 03:01:29;;;;;;;10.05;5.00;;;14.20;99.90;;;;;;5061162;28;20779;-57
2023/08/08 03:03:54;;;;;;;11.65;5.43;;;14.20;99.90;;;;;;5063415;28;20068;-57
2023/08/08 03:06:20;;;;;;;14.50;4.97;;;14.20;99.90;;;;;;5062546;28;20044;-57
2023/08/08 03:08:46;;;;;;;9.15;4.47;;;14.20;99.90;;;;;;5079421;28;20058;-57
2023/08/08 03:11:11;;;;;;;13.45;4.75;;;14.20;99.90;;;;;;5060609;28;20068;-58
2023/08/08 03:13:37;;;;;;;14.43;4.10;;;14.20;99.90;;;;;;5062099;28;20043;-58
2023/08/08 03:16:03;;;;;;;9.30;4.50;;;14.20;99.90;;;;;;5085156;28;20108;-57
2023/08/08 03:18:29;;;;;;;10.23;4.03;;;14.20;99.90;;;;;;5078687;28;20358;-57
2023/08/08 03:20:54;;;;;;;7.88;3.80;;;14.20;99.90;;;;;;5061992;28;20075;-57
2023/08/08 03:23:20;;;;;;;12.32;3.92;;;14.30;99.90;;;;;;5063266;28;20067;-57
2023/08/08 03:25:46;;;;;;;14.20;4.00;;;14.20;99.90;;;;;;5079275;28;20093;-57
2023/08/08 03:28:11;;;;;;;9.57;3.22;;;14.20;99.90;;;;;;5083778;28;20511;-57
2023/08/08 03:30:38;;;;;;;12.80;3.50;;;14.20;99.90;;;;;;5081735;28;20044;-57
2023/08/08 03:33:04;;;;;;;10.05;3.53;;;14.20;99.90;;;;;;5068639;28;20051;-57
2023/08/08 03:35:30;;;;;;;13.93;3.17;;;14.30;99.90;;;;;;5080113;28;20417;-57
2023/08/08 03:37:55;;;;;;;10.30;3.13;;;14.20;99.90;;;;;;5089573;28;20059;-56
2023/08/08 03:40:21;;;;;;;10.68;2.90;;;14.20;99.90;;;;;;5083528;28;20060;-57
2023/08/08 03:42:47;;;;;;;11.40;3.42;;;14.20;99.90;;;;;;5072522;28;20037;-57
2023/08/08 03:45:13;;;;;;;9.25;2.60;;;14.20;99.90;;;;;;5080274;28;20047;-57
2023/08/08 03:47:38;;;;;;;9.23;2.53;;;14.20;99.90;;;;;;5081066;28;20032;-56
2023/08/08 03:50:05;;;;;;;10.75;2.60;;;14.10;99.90;;;;;;5075282;28;20044;-57
2023/08/08 03:52:34;;;;;;;8.38;2.80;;;14.10;99.90;;;;;;5083549;28;20205;-56
2023/08/08 03:54:59;;;;;;;9.73;2.35;;;14.10;99.90;;;;;;5078222;28;20044;-57
2023/08/08 03:57:25;;;;;;;13.55;2.22;;;14.10;99.90;;;;;;5077731;28;20035;-58
2023/08/08 03:59:51;;;;;;;12.80;2.83;;;14.10;99.90;;;;;;5078111;28;20124;-57
2023/08/08 04:02:16;;;;;;;8.23;2.20;;;14.20;99.90;;;;;;5080444;28;20060;-57
2023/08/08 04:04:42;;;;;;;8.07;2.47;;;14.10;99.90;;;;;;5080999;28;20100;-57
2023/08/08 04:07:08;;;;;;;8.27;2.17;;;14.10;99.90;;;;;;5090422;28;20040;-57
2023/08/08 04:09:33;;;;;;;12.27;2.38;;;14.20;99.90;;;;;;5079719;28;20400;-56
2023/08/08 04:11:59;;;;;;;7.63;2.30;;;14.20;99.90;;;;;;5100767;28;20052;-55
2023/08/08 04:14:25;;;;;;;13.43;2.30;;;14.20;99.90;;;;;;5083853;28;20040;-56
2023/08/08 04:16:50;;;;;;;13.10;2.67;;;14.20;99.90;;;;;;5096585;28;20079;-57
2023/08/08 04:19:16;;;;;;;9.93;2.10;;;14.20;99.90;;;;;;5098895;28;20036;-57
2023/08/08 04:21:42;;;;;;;8.70;2.00;;;14.20;99.90;;;;;;5090662;28;20053;-57
2023/08/08 04:24:07;;;;;;;11.88;1.95;;;14.20;99.90;;;;;;5078250;28;20064;-57
2023/08/08 04:26:34;;;;;;;7.07;1.83;;;14.20;99.90;;;;;;5073193;28;20044;-57
2023/08/08 04:28:59;;;;;;;7.80;1.90;;;14.10;99.90;;;;;;5061390;28;20040;-57
2023/08/08 04:31:25;;;;;;;10.20;2.00;;;14.10;99.90;;;;;;5091350;28;20122;-57
2023/08/08 04:33:52;;;;;;;7.68;2.00;;;14.10;99.90;;;;;;5080247;28;20450;-57
2023/08/08 04:36:18;;;;;;;12.02;2.30;;;14.20;99.90;;;;;;5088248;28;20044;-56
2023/08/08 04:38:43;;;;;;;7.43;1.88;;;14.20;99.90;;;;;;5099797;28;20036;-57
2023/08/08 04:41:09;;;;;;;8.07;2.00;;;14.20;99.90;;;;;;5095178;28;20032;-57
2023/08/08 04:43:35;;;;;;;10.80;2.35;;;14.20;99.90;;;;;;5080234;28;20036;-57
2023/08/08 04:46:00;;;;;;;9.63;1.95;;;14.20;99.90;;;;;;5078702;28;20533;-57
2023/08/08 04:48:26;;;;;;;11.35;2.00;;;14.20;99.90;;;;;;5080373;28;20428;-58
2023/08/08 04:50:52;;;;;;;7.32;1.95;;;14.10;99.90;;;;;;5084584;28;20044;-56
2023/08/08 04:53:17;;;;;;;8.75;1.85;;;14.10;99.90;;;;;;5078919;28;20045;-57
2023/08/08 04:55:43;;;;;;;8.75;2.22;;;14.10;99.90;;;;;;5081554;28;20037;-57
2023/08/08 04:58:08;;;;;;;11.07;1.77;;;14.10;99.90;;;;;;5076472;28;20041;-57
2023/08/08 05:00:35;;;;;;;9.50;2.08;;;14.10;99.90;;;;;;5079624;28;20043;-57
2023/08/08 05:03:01;;;;;;;12.85;1.92;;;14.10;99.90;;;;;;5066381;28;20061;-56
2023/08/08 05:05:27;;;;;;;3.72;1.42;;;14.10;99.90;;;;;;5074541;28;20078;-56
2023/08/08 05:07:52;;;;;;;8.85;1.80;;;14.10;99.90;;;;;;5078520;28;20048;-56
2023/08/08 05:10:18;;;;;;;7.15;2.08;;;14.10;99.90;;;;;;5077290;28;20044;-57
2023/08/08 05:12:44;;;;;;;9.02;1.83;;;14.10;99.90;;;;;;5098220;28;20045;-56
2023/08/08 05:15:10;;;;;;;9.35;1.85;;;14.10;99.90;;;;;;5096343;28;20032;-57
2023/08/08 05:17:35;;;;;;;9.73;1.77;;;14.10;99.90;;;;;;5089805;28;20102;-57
2023/08/08 05:20:01;;;;;;;15.68;2.00;;;14.10;99.90;;;;;;5086233;28;20124;-57
2023/08/08 05:22:26;;;;;;;8.63;1.73;;;14.20;99.90;;;;;;5084616;28;20101;-57
2023/08/08 05:24:52;;;;;;;7.47;1.90;;;14.20;99.90;;;;;;5099736;28;20071;-58
2023/08/08 05:27:18;;;;;;;10.60;2.20;;;14.20;99.90;;;;;;5068131;28;20469;-58
2023/08/08 05:29:43;;;;;;;4.95;1.60;;;14.20;99.90;;;;;;5081361;28;20459;-57
2023/08/08 05:32:09;;;;;;;9.20;1.85;;;14.20;99.90;;;;;;5079742;28;20070;-57
2023/08/08 05:34:35;;;;;;;9.60;1.88;;;14.20;99.90;;;;;;5081224;28;20377;-57
2023/08/08 05:37:01;;;;;;;12.93;2.15;;;14.20;99.90;;;;;;5067590;28;20458;-57
2023/08/08 05:39:27;;;;;;;7.78;1.80;;;14.20;99.90;;;;;;5081907;28;20059;-57
2023/08/08 05:41:52;;;;;;;9.70;1.95;;;14.20;99.90;;;;;;5087334;28;20380;-57
2023/08/08 05:44:18;;;;;;;13.85;2.35;;;14.30;99.90;;;;;;5078146;28;20056;-57
2023/08/08 05:46:44;;;;;;;9.52;1.92;;;14.30;99.90;;;;;;5082046;28;20044;-57
2023/08/08 05:49:09;;;;;;;11.00;1.83;;;14.30;99.90;;;;;;5080183;28;20166;-58
2023/08/08 05:51:35;;;;;;;13.35;2.08;;;14.40;99.90;;;;;;5083632;28;20036;-57
2023/08/08 05:54:01;;;;;;;7.28;1.60;;;14.50;99.90;;;;;;5101387;28;20047;-56
2023/08/08 05:56:35;;;;;;;11.02;1.98;;;14.50;99.90;;;;;;5081462;28;20079;-58
2023/08/08 05:59:01;;;;;;;10.93;2.20;;;14.60;99.90;;;;;;5078926;28;20047;-56
2023/08/08 06:01:27;;;;;;;6.35;1.73;;;14.60;99.90;;;;;;5079351;28;20040;-55
2023/08/08 06:03:52;;;;;;;6.43;1.80;;;14.70;99.90;;;;;;5067677;28;20041;-57
2023/08/08 06:06:18;;;;;;;6.80;1.60;;;14.70;99.90;;;;;;5061421;28;20052;-57
2023/08/08 06:08:44;;;;;;;10.93;1.60;;;14.80;99.90;;;;;;5078873;28;20063;-58
2023/08/08 06:11:10;;;;;;;10.43;1.65;;;14.90;99.90;;;;;;5076875;28;20072;-57
2023/08/08 06:13:36;;;;;;;12.18;2.13;;;15.00;99.90;;;;;;5070267;28;20087;-57
2023/08/08 06:16:06;;;;;;;6.78;1.65;;;15.10;99.90;;;;;;5085182;28;20033;-57
2023/08/08 06:18:33;;;;;;;8.55;2.20;;;15.10;99.90;;;;;;5091980;28;20048;-57
2023/08/08 06:20:58;;;;;;;6.63;1.83;;;15.20;99.90;;;;;;5079387;28;20052;-56
2023/08/08 06:23:24;;;;;;;9.68;1.85;;;15.20;99.90;;;;;;5080569;28;20044;-57
2023/08/08 06:25:49;;;;;;;8.43;2.00;;;15.30;99.90;;;;;;5082778;28;20044;-56
2023/08/08 06:28:15;;;;;;;8.45;2.05;;;15.40;99.90;;;;;;5081156;28;20440;-57
2023/08/08 06:30:41;;;;;;;8.60;1.58;;;15.40;99.90;;;;;;5087028;28;20047;-57
2023/08/08 06:33:07;;;;;;;6.95;1.92;;;15.50;99.90;;;;;;5080802;28;20043;-56
2023/08/08 06:35:32;;;;;;;8.20;2.15;;;15.50;99.90;;;;;;5081012;28;20051;-57
2023/08/08 06:37:58;;;;;;;8.70;1.70;;;15.60;99.90;;;;;;5082305;28;20048;-57
2023/08/08 06:40:24;;;;;;;8.68;1.60;;;15.60;99.90;;;;;;5093277;28;20045;-57
2023/08/08 06:42:49;;;;;;;9.65;1.50;;;15.70;99.90;;;;;;5063407;28;20056;-57
2023/08/08 06:45:15;;;;;;;6.32;1.92;;;15.80;99.90;;;;;;5080493;28;20029;-57
2023/08/08 06:47:41;;;;;;;4.50;1.40;;;15.90;99.90;;;;;;5082635;28;20091;-56
2023/08/08 06:50:07;;;;;;;6.88;1.80;;;16.10;99.90;;;;;;5081772;28;20092;-56
2023/08/08 06:52:33;;;;;;;8.27;1.73;;;16.40;99.90;;;;;;5081355;28;20044;-57
2023/08/08 06:54:58;;;;;;;6.22;1.75;;;16.90;99.90;;;;;;5083690;28;20033;-56
2023/08/08 06:57:24;;;;;;;4.63;1.48;;;17.40;99.90;;;;;;5095460;28;20078;-56
2023/08/08 06:59:52;;;;;;;8.20;1.95;;;17.80;99.90;;;;;;5089506;28;20044;-57
2023/08/08 07:02:20;;;;;;;8.05;1.83;;;18.20;99.90;;;;;;5079007;28;20589;-57
2023/08/08 07:04:46;;;;;;;4.70;1.33;;;18.40;99.90;;;;;;5081539;28;20567;-57
2023/08/08 07:07:12;;;;;;;7.38;1.85;;;18.50;99.90;;;;;;5079963;28;20191;-57
2023/08/08 07:09:37;;;;;;;8.40;1.52;;;18.60;99.90;;;;;;5079699;28;20036;-57
2023/08/08 07:12:04;;;;;;;7.28;1.80;;;18.90;99.90;;;;;;5081638;28;20036;-57
2023/08/08 07:14:31;;;;;;;6.53;1.50;;;19.10;99.90;;;;;;5077565;28;20070;-57
2023/08/08 07:16:56;;;;;;;5.05;1.48;;;19.30;99.90;;;;;;5081984;28;20048;-56
2023/08/08 07:19:22;;;;;;;6.55;1.63;;;19.30;99.90;;;;;;5080005;28;20048;-57
2023/08/08 07:21:48;;;;;;;6.40;1.60;;;19.30;99.90;;;;;;5081734;28;20060;-56
2023/08/08 07:24:14;;;;;;;6.70;1.48;;;19.30;99.90;;;;;;5079295;28;20052;-56
2023/08/08 07:26:39;;;;;;;5.22;1.33;;;19.40;99.90;;;;;;5073359;28;20098;-57
2023/08/08 07:29:08;;;;;;;7.05;1.60;;;19.40;99.90;;;;;;5066468;28;20045;-57
2023/08/08 07:31:33;;;;;;;9.10;1.80;;;19.40;99.90;;;;;;5059964;28;20152;-57
2023/08/08 07:33:59;;;;;;;4.70;1.40;;;19.40;99.90;;;;;;5060070;28;20060;-57
2023/08/08 07:36:25;;;;;;;6.75;1.50;;;19.30;99.90;;;;;;5059812;28;20064;-56
2023/08/08 07:38:51;;;;;;;9.13;1.75;;;19.20;99.90;;;;;;5065841;28;20049;-57
2023/08/08 07:41:17;;;;;;;5.45;1.48;;;18.90;99.90;;;;;;5080328;28;20033;-56
2023/08/08 07:43:43;;;;;;;6.30;1.45;;;18.70;99.90;;;;;;5080504;28;20044;-57
2023/08/08 07:46:09;;;;;;;5.28;1.50;;;18.60;99.90;;;;;;5076205;28;20051;-56
2023/08/08 07:48:35;;;;;;;4.43;1.40;;;18.50;99.90;;;;;;5067836;28;20033;-57
2023/08/08 07:51:01;;;;;;;7.60;1.42;;;18.30;99.90;;;;;;5093376;28;20103;-57
2023/08/08 07:53:26;;;;;;;5.35;1.38;;;18.20;99.90;;;;;;5059816;28;20037;-57
2023/08/08 07:55:52;;;;;;;5.75;1.50;;;18.00;99.90;;;;;;5061459;28;20458;-57
2023/08/08 07:58:19;;;;;;;5.00;1.50;;;18.00;99.90;;;;;;5091666;28;20097;-56
2023/08/08 08:00:44;;;;;;;6.63;1.30;;;17.90;99.90;;;;;;5092834;28;20079;-57
2023/08/08 08:03:10;;;;;;;5.05;1.23;;;17.70;99.90;;;;;;5076255;28;20045;-57
2023/08/08 08:05:37;;;;;;;5.90;1.33;;;17.70;99.90;;;;;;5062611;28;20041;-57
2023/08/08 08:08:03;;;;;;;4.35;1.20;;;17.70;99.90;;;;;;5059426;28;20050;-57
2023/08/08 08:10:29;;;;;;;5.00;1.20;;;17.70;99.90;;;;;;5059317;28;20100;-57
2023/08/08 08:12:57;;;;;;;6.72;1.45;;;17.70;99.90;;;;;;5058581;28;20079;-57
2023/08/08 08:15:25;;;;;;;4.00;1.55;;;17.70;99.90;;;;;;5061047;28;20044;-57
2023/08/08 08:17:50;;;;;;;3.47;1.20;;;17.70;99.90;;;;;;5080847;28;20044;-57
2023/08/08 08:20:16;;;;;;;4.70;1.30;;;17.80;99.90;;;;;;5080110;28;20066;-56
2023/08/08 08:22:42;;;;;;;6.35;1.50;;;17.70;99.90;;;;;;5079550;28;20056;-57
2023/08/08 08:25:09;;;;;;;4.32;1.30;;;17.60;99.90;;;;;;5080706;28;20048;-57
2023/08/08 08:27:38;;;;;;;5.57;1.25;;;17.60;99.90;;;;;;5079308;28;20040;-57
2023/08/08 08:30:05;;;;;;;6.57;1.58;;;17.70;99.90;;;;;;5079883;28;20078;-56
2023/08/08 08:32:34;;;;;;;7.15;1.60;;;17.70;99.90;;;;;;5079429;28;20040;-57
2023/08/08 08:35:06;;;;;;;4.90;1.30;;;17.70;99.90;;;;;;5079897;28;20033;-57
2023/08/08 08:37:31;;;;;;;3.90;1.20;;;17.80;99.90;;;;;;5080426;28;20041;-56
2023/08/08 08:39:57;;;;;;;4.88;1.30;;;17.80;99.90;;;;;;5079104;28;20143;-57
2023/08/08 08:42:23;;;;;;;2.80;1.10;;;17.70;99.90;;;;;;5080420;28;20036;-57
2023/08/08 08:44:51;;;;;;;6.78;1.20;;;17.70;99.90;;;;;;5078606;28;20041;-56
2023/08/08 08:47:19;;;;;;;7.30;1.60;;;17.60;99.90;;;;;;5069052;28;20512;-57
2023/08/08 08:49:45;;;;;;;4.90;1.20;;;17.80;99.90;;;;;;5075042;28;20048;-56
2023/08/08 08:52:12;;;;;;;6.85;1.48;;;17.80;99.90;;;;;;5078490;28;20048;-56
2023/08/08 08:54:38;;;;;;;3.38;1.20;;;17.80;99.90;;;;;;5080327;28;20037;-56
2023/08/08 08:57:04;;;;;;;5.43;1.38;;;17.80;99.90;;;;;;5078915;28;20526;-57
2023/08/08 08:59:30;;;;;;;9.00;1.38;;;17.90;99.90;;;;;;5080277;28;20048;-57
2023/08/08 09:01:57;;;;;;;7.32;1.35;;;17.90;99.90;;;;;;5076379;28;20076;-57
2023/08/08 09:04:23;;;;;;;6.13;1.30;;;18.00;99.90;;;;;;5079597;28;20067;-57
2023/08/08 09:06:50;;;;;;;6.65;1.48;;;18.00;99.90;;;;;;5079117;28;20079;-57
2023/08/08 09:09:16;;;;;;;4.25;1.33;;;18.10;99.90;;;;;;5079838;28;20042;-56
2023/08/08 09:11:47;;;;;;;4.90;1.30;;;18.00;99.90;;;;;;5079688;28;20159;-57
2023/08/08 09:14:16;;;;;;;4.47;1.13;;;18.00;99.90;;;;;;5078630;28;20080;-57
2023/08/08 09:16:43;;;;;;;4.25;1.23;;;18.00;99.90;;;;;;5080324;28;20080;-57
2023/08/08 09:19:09;;;;;;;2.33;0.85;;;17.90;99.90;;;;;;5076517;28;20087;-57
2023/08/08 09:21:34;;;;;;;9.65;1.50;;;17.80;99.90;;;;;;5080347;28;20044;-57
2023/08/08 09:24:00;;;;;;;8.73;1.60;;;17.70;99.90;;;;;;5079873;28;20606;-57
2023/08/08 09:26:26;;;;;;;4.03;1.30;;;17.60;99.90;;;;;;5083517;28;20048;-56
2023/08/08 09:28:52;;;;;;;4.53;1.20;;;17.60;99.90;;;;;;5083878;28;20033;-57
2023/08/08 09:31:18;;;;;;;6.20;1.25;;;17.60;99.90;;;;;;5080994;28;20515;-57
2023/08/08 09:33:45;;;;;;;7.07;1.50;;;17.90;99.90;;;;;;5083490;28;20040;-56
2023/08/08 09:36:16;;;;;;;9.57;1.63;;;18.00;99.90;;;;;;5080119;28;20040;-56
2023/08/08 09:38:42;;;;;;;5.53;1.60;;;18.20;99.90;;;;;;5083850;28;20048;-57
2023/08/08 09:41:08;;;;;;;5.38;1.33;;;18.30;99.90;;;;;;5082556;28;20074;-56
2023/08/08 09:43:34;;;;;;;6.68;1.35;;;18.30;99.90;;;;;;5083007;28;20036;-57
2023/08/08 09:46:00;;;;;;;6.82;1.30;;;18.20;99.90;;;;;;5083363;28;20043;-57
2023/08/08 09:48:31;;;;;;;7.60;1.50;;;18.20;99.90;;;;;;5080972;28;20040;-56
2023/08/08 09:50:59;;;;;;;9.05;1.50;;;18.20;99.90;;;;;;5081463;28;20084;-56
2023/08/08 09:53:27;;;;;;;6.60;1.15;;;18.10;99.90;;;;;;5081635;28;20070;-57
2023/08/08 09:55:55;;;;;;;4.43;1.30;;;18.00;99.90;;;;;;5083709;28;20040;-57
2023/08/08 09:58:22;;;;;;;3.70;1.40;;;17.90;99.90;;;;;;5082321;28;20045;-57
2023/08/08 10:00:50;;;;;;;5.07;1.23;;;17.90;99.90;;;;;;5082900;28;20036;-57
2023/08/08 10:03:19;;;;;;;5.25;1.20;;;17.90;99.90;;;;;;5059606;28;20114;-56
2023/08/08 10:05:46;;;;;;;6.22;1.58;;;18.00;99.90;;;;;;5081419;28;20508;-57
2023/08/08 10:08:15;;;;;;;5.07;1.20;;;18.00;99.90;;;;;;5083560;28;20079;-57
2023/08/08 10:10:42;;;;;;;4.65;1.40;;;17.90;99.90;;;;;;5081549;28;20037;-57
2023/08/08 10:13:08;;;;;;;5.47;1.30;;;17.80;99.90;;;;;;5083291;28;20044;-57
2023/08/08 10:15:38;;;;;;;4.07;1.20;;;17.80;99.90;;;;;;5080075;28;20040;-55
2023/08/08 10:18:04;;;;;;;4.70;1.30;;;17.90;99.90;;;;;;5070765;28;20076;-57
2023/08/08 10:20:34;;;;;;;4.05;1.60;;;18.00;99.90;;;;;;5062617;28;20100;-56
2023/08/08 10:23:02;;;;;;;7.25;1.40;;;17.90;99.90;;;;;;5061120;28;20053;-56
2023/08/08 10:25:30;;;;;;;8.45;1.63;;;17.70;99.90;;;;;;5062930;28;20075;-56
2023/08/08 10:28:13;;;;;;;7.18;1.90;;;17.50;99.90;;;;;;5061133;28;20064;-57
2023/08/08 10:30:50;;;;;;;9.13;2.00;;;17.30;99.90;;;;;;5062774;28;20079;-56
2023/08/08 10:33:21;;;;;;;5.90;1.73;;;17.10;99.90;;;;;;5062502;28;20041;-56
2023/08/08 10:35:58;;;;;;;4.38;1.40;;;16.90;99.90;;;;;;5058763;28;20052;-57
2023/08/08 10:38:49;;;;;;;8.85;1.50;;;16.90;99.90;;;;;;5062918;28;20187;-55
2023/08/08 10:41:17;;;;;;;7.65;2.10;;;17.00;99.90;;;;;;5061461;28;20493;-56
2023/08/08 10:43:52;;;;;;;6.35;2.05;;;17.00;99.90;;;;;;5061701;28;20041;-57
2023/08/08 10:46:25;;;;;;;5.43;1.33;;;17.20;99.90;;;;;;5075874;28;20055;-56
2023/08/08 10:48:55;;;;;;;7.18;1.65;;;17.30;99.90;;;;;;5080866;28;20063;-56
2023/08/08 10:51:21;;;;;;;5.55;1.55;;;17.40;99.90;;;;;;5069173;28;20096;-56
2023/08/08 10:53:51;;;;;;;4.50;1.45;;;17.10;99.90;;;;;;5093628;28;20071;-56
2023/08/08 10:56:18;;;;;;;5.47;1.58;;;17.40;99.90;;;;;;5071364;28;20066;-56
2023/08/08 10:58:48;;;;;;;5.85;1.48;;;17.20;99.90;;;;;;5079293;28;20045;-55
2023/08/08 11:01:16;;;;;;;6.50;1.88;;;17.10;99.90;;;;;;5080770;28;20100;-56
2023/08/08 11:03:42;;;;;;;5.07;1.48;;;17.00;99.90;;;;;;5075045;28;20055;-56
2023/08/08 11:06:10;;;;;;;6.97;1.60;;;17.00;99.90;;;;;;5067356;28;20037;-56
2023/08/08 11:08:40;;;;;;;6.60;1.50;;;16.90;99.90;;;;;;5071693;28;20045;-56
2023/08/08 11:11:06;;;;;;;6.90;1.80;;;17.00;99.90;;;;;;5077194;28;20070;-56
2023/08/08 11:13:32;;;;;;;8.60;1.90;;;17.10;99.90;;;;;;5061407;28;20041;-56
2023/08/08 11:15:58;;;;;;;6.57;1.70;;;17.20;99.90;;;;;;5061386;28;20128;-56
2023/08/08 11:18:25;;;;;;;3.88;1.55;;;17.30;99.90;;;;;;5059040;28;20069;-56
2023/08/08 11:20:51;;;;;;;7.40;1.70;;;17.40;99.90;;;;;;5061786;28;20067;-56
2023/08/08 11:23:18;;;;;;;7.32;1.85;;;17.40;99.90;;;;;;5077852;28;20044;-56
2023/08/08 11:25:45;;;;;;;3.33;1.52;;;17.20;99.90;;;;;;5073418;28;20056;-56
2023/08/08 11:28:12;;;;;;;6.68;1.92;;;17.10;99.90;;;;;;5071141;28;20658;-56
2023/08/08 11:30:43;;;;;;;5.50;1.85;;;16.90;99.90;;;;;;5081277;28;20452;-56
2023/08/08 11:33:10;;;;;;;5.15;1.70;;;16.70;99.90;;;;;;5081367;28;20048;-56
2023/08/08 11:35:36;;;;;;;5.30;2.45;;;16.50;99.90;;;;;;5078307;28;20445;-56
2023/08/08 11:38:04;;;;;;;5.25;2.20;;;16.40;99.90;;;;;;5071948;28;20471;-56
2023/08/08 11:40:30;;;;;;;7.03;2.28;;;16.40;99.90;;;;;;5058264;28;20037;-56
2023/08/08 11:42:57;;;;;;;4.55;1.80;;;16.40;99.90;;;;;;5061947;28;20049;-56
2023/08/08 11:45:24;;;;;;;7.10;2.40;;;16.40;99.90;;;;;;5059892;28;20045;-57
2023/08/08 11:47:55;;;;;;;6.97;2.25;;;16.40;99.90;;;;;;5061338;28;20110;-58
2023/08/08 11:50:23;;;;;;;7.93;2.40;;;16.60;99.90;;;;;;5060777;28;20380;-57
2023/08/08 11:52:51;;;;;;;7.00;2.10;;;16.70;99.90;;;;;;5060075;28;20072;-57
2023/08/08 11:55:20;;;;;;;6.93;2.00;;;16.80;99.90;;;;;;5061176;28;20041;-57
2023/08/08 11:57:46;;;;;;;7.95;2.15;;;16.90;99.90;;;;;;5063032;28;20084;-57
2023/08/08 12:00:12;;;;;;;8.68;2.00;;;17.00;99.90;;;;;;5062686;28;20048;-57
2023/08/08 12:02:42;;;;;;;5.07;1.70;;;17.00;99.90;;;;;;5067567;28;20045;-57
2023/08/08 12:05:13;;;;;;;3.83;1.45;;;17.00;99.90;;;;;;5080837;28;20123;-58
2023/08/08 12:07:44;;;;;;;6.85;1.55;;;17.00;99.90;;;;;;5078726;28;20047;-58
2023/08/08 12:10:23;;;;;;;3.20;1.50;;;17.10;99.90;;;;;;5079171;28;20036;-58
2023/08/08 12:12:56;;;;;;;6.70;1.73;;;17.10;99.90;;;;;;5079670;28;20063;-58
2023/08/08 12:15:22;;;;;;;6.90;1.75;;;17.10;99.90;;;;;;5068731;28;20044;-58
2023/08/08 12:17:48;;;;;;;4.53;1.60;;;17.10;99.90;;;;;;5072133;28;20064;-58
2023/08/08 12:20:15;;;;;;;5.72;1.38;;;17.10;99.90;;;;;;5062909;28;20074;-58
2023/08/08 12:22:41;;;;;;;3.53;1.60;;;17.10;99.90;;;;;;5052913;28;20056;-58
2023/08/08 12:25:08;;;;;;;7.63;1.55;;;17.20;99.90;;;;;;5063291;28;20156;-57
2023/08/08 12:27:33;;;;;;;6.53;2.05;;;17.10;99.90;;;;;;5061205;28;20045;-56
2023/08/08 12:29:59;;;;;;;5.93;1.60;;;17.00;99.90;;;;;;5065367;28;20098;-58
2023/08/08 12:32:28;;;;;;;3.85;1.40;;;16.90;99.90;;;;;;5066912;28;20481;-58
2023/08/08 12:34:55;;;;;;;3.80;1.50;;;16.80;99.90;;;;;;5065949;28;20043;-58
2023/08/08 12:37:21;;;;;;;5.82;1.80;;;16.70;99.90;;;;;;5071496;28;20052;-58
2023/08/08 12:39:46;;;;;;;4.20;1.50;;;16.70;99.90;;;;;;5061787;28;20099;-59